sensor_id;sensor_type;location;lat;lon;timestamp;P1;durP1;ratioP1;P2;durP2;ratioP2
43319;SDS011;28914;48.722;9.332;2024-01-25T00:01:40;7.83;;;2.40;;
43319;SDS011;28914;48.722;9.332;2024-01-25T00:06:59;6.63;;;2.80;;
43319;SDS011;28914;48.722;9.332;2024-01-25T00:12:18;6.13;;;2.80;;
43319;SDS011;28914;48.722;9.332;2024-01-25T00:17:37;8.30;;;3.70;;
43319;SDS011;28914;48.722;9.332;2024-01-25T00:22:56;14.73;;;3.47;;
43319;SDS011;28914;48.722;9.332;2024-01-25T00:28:16;4.77;;;2.30;;
43319;SDS011;28914;48.722;9.332;2024-01-25T00:33:35;5.17;;;2.27;;
43319;SDS011;28914;48.722;9.332;2024-01-25T00:38:54;7.13;;;2.60;;
43319;SDS011;28914;48.722;9.332;2024-01-25T00:44:14;8.00;;;2.30;;
43319;SDS011;28914;48.722;9.332;2024-01-25T00:49:33;9.77;;;2.60;;
43319;SDS011;28914;48.722;9.332;2024-01-25T00:54:53;12.13;;;3.57;;
43319;SDS011;28914;48.722;9.332;2024-01-25T01:00:13;5.93;;;2.60;;
43319;SDS011;28914;48.722;9.332;2024-01-25T01:05:32;8.57;;;2.73;;
43319;SDS011;28914;48.722;9.332;2024-01-25T01:10:52;5.87;;;2.67;;
43319;SDS011;28914;48.722;9.332;2024-01-25T01:16:11;10.20;;;3.77;;
43319;SDS011;28914;48.722;9.332;2024-01-25T01:21:30;12.77;;;2.87;;
43319;SDS011;28914;48.722;9.332;2024-01-25T01:26:50;8.77;;;3.30;;
43319;SDS011;28914;48.722;9.332;2024-01-25T01:32:10;7.93;;;3.23;;
43319;SDS011;28914;48.722;9.332;2024-01-25T01:37:29;7.17;;;2.83;;
43319;SDS011;28914;48.722;9.332;2024-01-25T01:42:48;8.23;;;3.23;;
43319;SDS011;28914;48.722;9.332;2024-01-25T01:48:07;8.90;;;3.10;;
43319;SDS011;28914;48.722;9.332;2024-01-25T01:53:26;8.73;;;3.07;;
43319;SDS011;28914;48.722;9.332;2024-01-25T01:58:45;7.50;;;2.70;;
43319;SDS011;28914;48.722;9.332;2024-01-25T02:04:06;8.87;;;3.33;;
43319;SDS011;28914;48.722;9.332;2024-01-25T02:09:26;7.37;;;2.70;;
43319;SDS011;28914;48.722;9.332;2024-01-25T02:14:45;7.70;;;3.00;;
43319;SDS011;28914;48.722;9.332;2024-01-25T02:20:05;9.37;;;3.27;;
43319;SDS011;28914;48.722;9.332;2024-01-25T02:25:25;9.60;;;3.07;;
43319;SDS011;28914;48.722;9.332;2024-01-25T02:30:44;7.17;;;2.50;;
43319;SDS011;28914;48.722;9.332;2024-01-25T02:36:03;11.40;;;4.37;;
43319;SDS011;28914;48.722;9.332;2024-01-25T02:41:23;8.10;;;2.47;;
43319;SDS011;28914;48.722;9.332;2024-01-25T02:46:42;6.97;;;2.60;;
43319;SDS011;28914;48.722;9.332;2024-01-25T02:52:03;8.70;;;2.93;;
43319;SDS011;28914;48.722;9.332;2024-01-25T02:57:22;6.53;;;2.20;;
43319;SDS011;28914;48.722;9.332;2024-01-25T03:02:42;10.63;;;3.00;;
43319;SDS011;28914;48.722;9.332;2024-01-25T03:08:01;8.90;;;3.20;;
43319;SDS011;28914;48.722;9.332;2024-01-25T03:13:20;6.10;;;2.90;;
43319;SDS011;28914;48.722;9.332;2024-01-25T03:18:39;8.67;;;3.27;;
43319;SDS011;28914;48.722;9.332;2024-01-25T03:23:58;5.80;;;2.70;;
43319;SDS011;28914;48.722;9.332;2024-01-25T03:29:18;7.17;;;2.63;;
43319;SDS011;28914;48.722;9.332;2024-01-25T03:34:37;7.20;;;2.87;;
43319;SDS011;28914;48.722;9.332;2024-01-25T03:39:56;7.47;;;2.60;;
43319;SDS011;28914;48.722;9.332;2024-01-25T03:45:15;5.50;;;2.10;;
43319;SDS011;28914;48.722;9.332;2024-01-25T03:50:34;10.03;;;3.10;;
43319;SDS011;28914;48.722;9.332;2024-01-25T03:55:53;6.20;;;3.00;;
43319;SDS011;28914;48.722;9.332;2024-01-25T04:01:13;9.97;;;3.40;;
43319;SDS011;28914;48.722;9.332;2024-01-25T04:06:32;6.30;;;2.70;;
43319;SDS011;28914;48.722;9.332;2024-01-25T04:11:51;11.00;;;3.40;;
43319;SDS011;28914;48.722;9.332;2024-01-25T04:17:11;6.03;;;2.53;;
43319;SDS011;28914;48.722;9.332;2024-01-25T04:22:30;8.60;;;2.77;;
43319;SDS011;28914;48.722;9.332;2024-01-25T04:27:50;14.90;;;3.40;;
43319;SDS011;28914;48.722;9.332;2024-01-25T04:33:10;8.87;;;2.53;;
43319;SDS011;28914;48.722;9.332;2024-01-25T04:38:29;9.23;;;2.60;;
43319;SDS011;28914;48.722;9.332;2024-01-25T04:43:48;5.63;;;2.07;;
43319;SDS011;28914;48.722;9.332;2024-01-25T04:49:07;4.83;;;2.20;;
43319;SDS011;28914;48.722;9.332;2024-01-25T04:54:26;9.67;;;2.73;;
43319;SDS011;28914;48.722;9.332;2024-01-25T04:59:45;7.83;;;2.80;;
43319;SDS011;28914;48.722;9.332;2024-01-25T05:05:04;10.93;;;3.00;;
43319;SDS011;28914;48.722;9.332;2024-01-25T05:10:24;10.80;;;2.80;;
43319;SDS011;28914;48.722;9.332;2024-01-25T05:15:44;6.80;;;3.17;;
43319;SDS011;28914;48.722;9.332;2024-01-25T05:21:03;4.90;;;2.80;;
43319;SDS011;28914;48.722;9.332;2024-01-25T05:26:22;6.73;;;2.70;;
43319;SDS011;28914;48.722;9.332;2024-01-25T05:31:41;7.37;;;2.57;;
43319;SDS011;28914;48.722;9.332;2024-01-25T05:37:01;5.97;;;2.80;;
43319;SDS011;28914;48.722;9.332;2024-01-25T05:42:20;6.80;;;3.17;;
43319;SDS011;28914;48.722;9.332;2024-01-25T05:47:39;7.77;;;2.60;;
43319;SDS011;28914;48.722;9.332;2024-01-25T05:52:58;7.20;;;2.80;;
43319;SDS011;28914;48.722;9.332;2024-01-25T05:58:18;6.93;;;2.40;;
43319;SDS011;28914;48.722;9.332;2024-01-25T06:03:37;6.43;;;3.10;;
43319;SDS011;28914;48.722;9.332;2024-01-25T06:08:56;6.50;;;2.83;;
43319;SDS011;28914;48.722;9.332;2024-01-25T06:14:16;8.47;;;3.40;;
43319;SDS011;28914;48.722;9.332;2024-01-25T06:19:35;9.90;;;3.30;;
43319;SDS011;28914;48.722;9.332;2024-01-25T06:24:54;9.57;;;3.97;;
43319;SDS011;28914;48.722;9.332;2024-01-25T06:30:14;9.67;;;4.17;;
43319;SDS011;28914;48.722;9.332;2024-01-25T06:35:33;9.47;;;4.00;;
43319;SDS011;28914;48.722;9.332;2024-01-25T06:40:52;4.87;;;2.97;;
43319;SDS011;28914;48.722;9.332;2024-01-25T06:46:12;14.33;;;3.80;;
43319;SDS011;28914;48.722;9.332;2024-01-25T06:51:31;9.63;;;3.50;;
43319;SDS011;28914;48.722;9.332;2024-01-25T06:56:50;9.33;;;3.80;;
43319;SDS011;28914;48.722;9.332;2024-01-25T07:02:10;7.00;;;3.53;;
43319;SDS011;28914;48.722;9.332;2024-01-25T07:07:29;6.57;;;3.20;;
43319;SDS011;28914;48.722;9.332;2024-01-25T07:12:50;6.90;;;3.53;;
43319;SDS011;28914;48.722;9.332;2024-01-25T07:18:10;5.73;;;3.37;;
43319;SDS011;28914;48.722;9.332;2024-01-25T07:23:30;6.93;;;3.80;;
43319;SDS011;28914;48.722;9.332;2024-01-25T07:28:49;8.57;;;3.90;;
43319;SDS011;28914;48.722;9.332;2024-01-25T07:34:08;11.00;;;4.00;;
43319;SDS011;28914;48.722;9.332;2024-01-25T07:39:27;10.50;;;5.20;;
43319;SDS011;28914;48.722;9.332;2024-01-25T07:44:46;10.40;;;4.80;;
43319;SDS011;28914;48.722;9.332;2024-01-25T07:50:05;9.93;;;4.90;;
43319;SDS011;28914;48.722;9.332;2024-01-25T07:55:25;8.60;;;5.07;;
43319;SDS011;28914;48.722;9.332;2024-01-25T08:00:44;8.90;;;3.63;;
43319;SDS011;28914;48.722;9.332;2024-01-25T08:06:03;6.70;;;4.10;;
43319;SDS011;28914;48.722;9.332;2024-01-25T08:11:23;6.43;;;3.10;;
43319;SDS011;28914;48.722;9.332;2024-01-25T08:16:43;7.47;;;3.00;;
43319;SDS011;28914;48.722;9.332;2024-01-25T08:22:02;17.53;;;9.03;;
43319;SDS011;28914;48.722;9.332;2024-01-25T08:27:21;17.17;;;10.10;;
43319;SDS011;28914;48.722;9.332;2024-01-25T08:32:41;10.43;;;5.77;;
43319;SDS011;28914;48.722;9.332;2024-01-25T08:38:00;13.20;;;5.30;;
43319;SDS011;28914;48.722;9.332;2024-01-25T08:43:19;7.20;;;2.93;;
43319;SDS011;28914;48.722;9.332;2024-01-25T08:48:38;7.50;;;3.77;;
43319;SDS011;28914;48.722;9.332;2024-01-25T08:53:57;8.13;;;3.43;;
43319;SDS011;28914;48.722;9.332;2024-01-25T08:59:17;7.63;;;4.30;;
43319;SDS011;28914;48.722;9.332;2024-01-25T09:04:36;9.40;;;5.33;;
43319;SDS011;28914;48.722;9.332;2024-01-25T09:09:55;14.00;;;6.33;;
43319;SDS011;28914;48.722;9.332;2024-01-25T09:15:14;12.77;;;7.37;;
43319;SDS011;28914;48.722;9.332;2024-01-25T09:20:33;9.77;;;3.83;;
43319;SDS011;28914;48.722;9.332;2024-01-25T09:25:53;9.63;;;3.40;;
43319;SDS011;28914;48.722;9.332;2024-01-25T09:31:12;9.43;;;3.57;;
43319;SDS011;28914;48.722;9.332;2024-01-25T09:36:32;8.03;;;2.97;;
43319;SDS011;28914;48.722;9.332;2024-01-25T09:41:51;8.53;;;2.93;;
43319;SDS011;28914;48.722;9.332;2024-01-25T09:47:11;5.57;;;2.50;;
43319;SDS011;28914;48.722;9.332;2024-01-25T09:52:30;7.67;;;2.40;;
43319;SDS011;28914;48.722;9.332;2024-01-25T09:57:52;8.37;;;2.87;;
43319;SDS011;28914;48.722;9.332;2024-01-25T10:03:14;7.07;;;2.77;;
43319;SDS011;28914;48.722;9.332;2024-01-25T10:08:33;9.60;;;3.00;;
43319;SDS011;28914;48.722;9.332;2024-01-25T10:13:52;9.30;;;2.73;;
43319;SDS011;28914;48.722;9.332;2024-01-25T10:19:12;8.07;;;2.97;;
43319;SDS011;28914;48.722;9.332;2024-01-25T10:24:31;5.97;;;2.47;;
43319;SDS011;28914;48.722;9.332;2024-01-25T10:29:52;5.03;;;2.97;;
43319;SDS011;28914;48.722;9.332;2024-01-25T10:35:11;11.67;;;3.97;;
43319;SDS011;28914;48.722;9.332;2024-01-25T10:40:33;6.13;;;2.30;;
43319;SDS011;28914;48.722;9.332;2024-01-25T10:45:52;8.17;;;2.70;;
43319;SDS011;28914;48.722;9.332;2024-01-25T10:51:14;7.83;;;3.43;;
43319;SDS011;28914;48.722;9.332;2024-01-25T10:56:37;5.57;;;2.43;;
43319;SDS011;28914;48.722;9.332;2024-01-25T11:02:00;6.70;;;2.70;;
43319;SDS011;28914;48.722;9.332;2024-01-25T11:07:19;5.93;;;2.70;;
43319;SDS011;28914;48.722;9.332;2024-01-25T11:18:17;9.63;;;3.17;;
43319;SDS011;28914;48.722;9.332;2024-01-25T11:23:37;6.10;;;2.33;;
43319;SDS011;28914;48.722;9.332;2024-01-25T11:29:01;9.63;;;3.43;;
43319;SDS011;28914;48.722;9.332;2024-01-25T11:34:21;6.67;;;2.70;;
43319;SDS011;28914;48.722;9.332;2024-01-25T11:39:42;5.17;;;2.70;;
43319;SDS011;28914;48.722;9.332;2024-01-25T11:45:02;5.90;;;2.57;;
43319;SDS011;28914;48.722;9.332;2024-01-25T11:50:23;6.07;;;2.73;;
43319;SDS011;28914;48.722;9.332;2024-01-25T11:55:42;6.67;;;2.47;;
43319;SDS011;28914;48.722;9.332;2024-01-25T12:01:02;7.73;;;3.00;;
43319;SDS011;28914;48.722;9.332;2024-01-25T12:06:24;6.20;;;2.60;;
43319;SDS011;28914;48.722;9.332;2024-01-25T12:11:43;4.67;;;2.77;;
43319;SDS011;28914;48.722;9.332;2024-01-25T12:17:03;5.63;;;2.50;;
43319;SDS011;28914;48.722;9.332;2024-01-25T12:22:23;6.00;;;3.20;;
43319;SDS011;28914;48.722;9.332;2024-01-25T12:27:43;6.67;;;2.30;;
43319;SDS011;28914;48.722;9.332;2024-01-25T12:33:05;8.30;;;3.03;;
43319;SDS011;28914;48.722;9.332;2024-01-25T12:38:25;6.47;;;2.20;;
43319;SDS011;28914;48.722;9.332;2024-01-25T12:43:44;6.13;;;2.30;;
43319;SDS011;28914;48.722;9.332;2024-01-25T12:49:03;6.40;;;2.20;;
43319;SDS011;28914;48.722;9.332;2024-01-25T12:54:22;5.20;;;2.40;;
43319;SDS011;28914;48.722;9.332;2024-01-25T12:59:42;6.20;;;2.50;;
43319;SDS011;28914;48.722;9.332;2024-01-25T13:05:01;4.90;;;2.47;;
43319;SDS011;28914;48.722;9.332;2024-01-25T13:10:20;5.47;;;2.67;;
43319;SDS011;28914;48.722;9.332;2024-01-25T13:15:39;8.33;;;3.03;;
43319;SDS011;28914;48.722;9.332;2024-01-25T13:20:58;7.47;;;2.33;;
43319;SDS011;28914;48.722;9.332;2024-01-25T13:26:17;4.73;;;2.20;;
43319;SDS011;28914;48.722;9.332;2024-01-25T13:31:36;7.00;;;2.43;;
43319;SDS011;28914;48.722;9.332;2024-01-25T13:36:56;7.80;;;2.80;;
43319;SDS011;28914;48.722;9.332;2024-01-25T13:42:15;7.10;;;2.47;;
43319;SDS011;28914;48.722;9.332;2024-01-25T13:47:34;5.83;;;2.40;;
43319;SDS011;28914;48.722;9.332;2024-01-25T13:52:53;8.83;;;2.40;;
43319;SDS011;28914;48.722;9.332;2024-01-25T13:58:12;5.57;;;3.20;;
43319;SDS011;28914;48.722;9.332;2024-01-25T14:03:31;4.70;;;2.33;;
43319;SDS011;28914;48.722;9.332;2024-01-25T14:08:51;5.67;;;2.50;;
43319;SDS011;28914;48.722;9.332;2024-01-25T14:14:10;3.90;;;1.90;;
43319;SDS011;28914;48.722;9.332;2024-01-25T14:19:29;5.87;;;2.70;;
43319;SDS011;28914;48.722;9.332;2024-01-25T14:24:49;3.80;;;1.93;;
43319;SDS011;28914;48.722;9.332;2024-01-25T14:30:08;5.70;;;2.10;;
43319;SDS011;28914;48.722;9.332;2024-01-25T14:35:27;7.27;;;2.30;;
43319;SDS011;28914;48.722;9.332;2024-01-25T14:40:49;9.10;;;4.33;;
43319;SDS011;28914;48.722;9.332;2024-01-25T14:46:09;8.20;;;4.00;;
43319;SDS011;28914;48.722;9.332;2024-01-25T14:51:29;9.23;;;4.43;;
43319;SDS011;28914;48.722;9.332;2024-01-25T14:56:48;6.70;;;2.90;;
43319;SDS011;28914;48.722;9.332;2024-01-25T15:02:08;5.67;;;2.23;;
43319;SDS011;28914;48.722;9.332;2024-01-25T15:07:27;8.60;;;2.63;;
43319;SDS011;28914;48.722;9.332;2024-01-25T15:12:47;3.17;;;1.70;;
43319;SDS011;28914;48.722;9.332;2024-01-25T15:18:07;9.13;;;3.07;;
43319;SDS011;28914;48.722;9.332;2024-01-25T15:23:27;4.67;;;2.33;;
43319;SDS011;28914;48.722;9.332;2024-01-25T15:28:47;5.20;;;2.33;;
43319;SDS011;28914;48.722;9.332;2024-01-25T15:34:06;5.27;;;2.03;;
43319;SDS011;28914;48.722;9.332;2024-01-25T15:39:25;7.20;;;3.23;;
43319;SDS011;28914;48.722;9.332;2024-01-25T15:44:45;4.23;;;2.70;;
43319;SDS011;28914;48.722;9.332;2024-01-25T15:50:04;2.87;;;1.77;;
43319;SDS011;28914;48.722;9.332;2024-01-25T15:55:23;5.23;;;3.33;;
43319;SDS011;28914;48.722;9.332;2024-01-25T16:00:44;5.00;;;2.90;;
43319;SDS011;28914;48.722;9.332;2024-01-25T16:06:03;4.07;;;2.63;;
43319;SDS011;28914;48.722;9.332;2024-01-25T16:11:22;5.43;;;2.97;;
43319;SDS011;28914;48.722;9.332;2024-01-25T16:16:41;7.00;;;3.03;;
43319;SDS011;28914;48.722;9.332;2024-01-25T16:22:01;6.03;;;2.20;;
43319;SDS011;28914;48.722;9.332;2024-01-25T16:27:20;4.27;;;3.43;;
43319;SDS011;28914;48.722;9.332;2024-01-25T16:32:39;7.90;;;4.23;;
43319;SDS011;28914;48.722;9.332;2024-01-25T16:37:58;4.53;;;2.97;;
43319;SDS011;28914;48.722;9.332;2024-01-25T16:43:18;8.83;;;3.70;;
43319;SDS011;28914;48.722;9.332;2024-01-25T16:48:37;7.33;;;3.50;;
43319;SDS011;28914;48.722;9.332;2024-01-25T16:53:56;3.90;;;2.47;;
43319;SDS011;28914;48.722;9.332;2024-01-25T16:59:15;5.50;;;2.67;;
43319;SDS011;28914;48.722;9.332;2024-01-25T17:04:34;4.93;;;2.50;;
43319;SDS011;28914;48.722;9.332;2024-01-25T17:09:54;5.00;;;3.53;;
43319;SDS011;28914;48.722;9.332;2024-01-25T17:15:13;8.20;;;4.40;;
43319;SDS011;28914;48.722;9.332;2024-01-25T17:20:32;8.90;;;4.23;;
43319;SDS011;28914;48.722;9.332;2024-01-25T17:25:51;8.80;;;5.90;;
43319;SDS011;28914;48.722;9.332;2024-01-25T17:31:11;7.60;;;4.47;;
43319;SDS011;28914;48.722;9.332;2024-01-25T17:36:30;11.33;;;7.67;;
43319;SDS011;28914;48.722;9.332;2024-01-25T17:41:49;12.47;;;10.40;;
43319;SDS011;28914;48.722;9.332;2024-01-25T17:47:10;5.60;;;4.17;;
43319;SDS011;28914;48.722;9.332;2024-01-25T17:52:29;4.20;;;2.77;;
43319;SDS011;28914;48.722;9.332;2024-01-25T17:57:49;5.53;;;2.70;;
43319;SDS011;28914;48.722;9.332;2024-01-25T18:03:08;3.17;;;2.03;;
43319;SDS011;28914;48.722;9.332;2024-01-25T18:08:27;2.67;;;1.33;;
43319;SDS011;28914;48.722;9.332;2024-01-25T18:13:46;4.30;;;2.00;;
43319;SDS011;28914;48.722;9.332;2024-01-25T18:19:06;6.33;;;3.53;;
43319;SDS011;28914;48.722;9.332;2024-01-25T18:24:26;4.00;;;2.20;;
43319;SDS011;28914;48.722;9.332;2024-01-25T18:29:45;4.90;;;2.17;;
43319;SDS011;28914;48.722;9.332;2024-01-25T18:35:04;4.30;;;2.03;;
43319;SDS011;28914;48.722;9.332;2024-01-25T18:40:23;6.03;;;2.40;;
43319;SDS011;28914;48.722;9.332;2024-01-25T18:45:43;3.50;;;2.20;;
43319;SDS011;28914;48.722;9.332;2024-01-25T18:51:02;5.53;;;2.40;;
43319;SDS011;28914;48.722;9.332;2024-01-25T18:56:25;8.60;;;3.17;;
43319;SDS011;28914;48.722;9.332;2024-01-25T19:01:44;4.40;;;2.60;;
43319;SDS011;28914;48.722;9.332;2024-01-25T19:07:04;4.40;;;2.27;;
43319;SDS011;28914;48.722;9.332;2024-01-25T19:12:24;3.50;;;2.50;;
43319;SDS011;28914;48.722;9.332;2024-01-25T19:17:43;3.30;;;2.00;;
43319;SDS011;28914;48.722;9.332;2024-01-25T19:23:02;4.20;;;2.13;;
43319;SDS011;28914;48.722;9.332;2024-01-25T19:28:22;4.70;;;2.80;;
43319;SDS011;28914;48.722;9.332;2024-01-25T19:33:41;3.93;;;1.80;;
43319;SDS011;28914;48.722;9.332;2024-01-25T19:39:00;3.67;;;2.20;;
43319;SDS011;28914;48.722;9.332;2024-01-25T19:44:20;9.50;;;3.43;;
43319;SDS011;28914;48.722;9.332;2024-01-25T19:49:39;3.63;;;2.40;;
43319;SDS011;28914;48.722;9.332;2024-01-25T19:54:58;12.77;;;7.50;;
43319;SDS011;28914;48.722;9.332;2024-01-25T20:00:17;6.90;;;5.53;;
43319;SDS011;28914;48.722;9.332;2024-01-25T20:05:37;6.50;;;4.63;;
43319;SDS011;28914;48.722;9.332;2024-01-25T20:10:57;3.40;;;2.43;;
43319;SDS011;28914;48.722;9.332;2024-01-25T20:16:16;4.40;;;3.50;;
43319;SDS011;28914;48.722;9.332;2024-01-25T20:21:36;5.20;;;3.27;;
43319;SDS011;28914;48.722;9.332;2024-01-25T20:26:55;5.67;;;3.47;;
43319;SDS011;28914;48.722;9.332;2024-01-25T20:32:15;5.07;;;3.80;;
43319;SDS011;28914;48.722;9.332;2024-01-25T20:37:34;4.27;;;3.13;;
43319;SDS011;28914;48.722;9.332;2024-01-25T20:42:53;5.93;;;3.03;;
43319;SDS011;28914;48.722;9.332;2024-01-25T20:48:12;4.00;;;2.70;;
43319;SDS011;28914;48.722;9.332;2024-01-25T20:53:31;11.27;;;8.23;;
43319;SDS011;28914;48.722;9.332;2024-01-25T20:58:51;6.07;;;5.23;;
43319;SDS011;28914;48.722;9.332;2024-01-25T21:04:10;5.70;;;4.77;;
43319;SDS011;28914;48.722;9.332;2024-01-25T21:09:31;5.73;;;4.30;;
43319;SDS011;28914;48.722;9.332;2024-01-25T21:14:50;5.77;;;4.00;;
43319;SDS011;28914;48.722;9.332;2024-01-25T21:20:10;4.97;;;4.00;;
43319;SDS011;28914;48.722;9.332;2024-01-25T21:25:29;5.47;;;3.93;;
43319;SDS011;28914;48.722;9.332;2024-01-25T21:30:48;5.17;;;4.43;;
43319;SDS011;28914;48.722;9.332;2024-01-25T21:36:07;6.87;;;3.87;;
43319;SDS011;28914;48.722;9.332;2024-01-25T21:41:27;4.07;;;3.07;;
43319;SDS011;28914;48.722;9.332;2024-01-25T21:46:46;5.83;;;3.93;;
43319;SDS011;28914;48.722;9.332;2024-01-25T21:52:05;5.90;;;4.10;;
43319;SDS011;28914;48.722;9.332;2024-01-25T21:57:24;4.43;;;3.83;;
43319;SDS011;28914;48.722;9.332;2024-01-25T22:02:44;6.63;;;4.87;;
43319;SDS011;28914;48.722;9.332;2024-01-25T22:08:03;4.20;;;3.80;;
43319;SDS011;28914;48.722;9.332;2024-01-25T22:13:22;4.33;;;3.33;;
43319;SDS011;28914;48.722;9.332;2024-01-25T22:18:41;5.63;;;3.63;;
43319;SDS011;28914;48.722;9.332;2024-01-25T22:24:00;3.87;;;3.37;;
43319;SDS011;28914;48.722;9.332;2024-01-25T22:29:19;4.10;;;3.57;;
43319;SDS011;28914;48.722;9.332;2024-01-25T22:34:38;5.90;;;4.27;;
43319;SDS011;28914;48.722;9.332;2024-01-25T22:39:58;4.83;;;4.30;;
43319;SDS011;28914;48.722;9.332;2024-01-25T22:45:17;10.00;;;4.37;;
43319;SDS011;28914;48.722;9.332;2024-01-25T22:50:39;5.90;;;4.03;;
43319;SDS011;28914;48.722;9.332;2024-01-25T22:55:58;4.70;;;3.50;;
43319;SDS011;28914;48.722;9.332;2024-01-25T23:01:17;7.47;;;3.87;;
43319;SDS011;28914;48.722;9.332;2024-01-25T23:06:37;5.43;;;4.70;;
43319;SDS011;28914;48.722;9.332;2024-01-25T23:11:56;10.23;;;8.23;;
43319;SDS011;28914;48.722;9.332;2024-01-25T23:17:15;9.70;;;7.20;;
43319;SDS011;28914;48.722;9.332;2024-01-25T23:22:35;7.67;;;6.13;;
43319;SDS011;28914;48.722;9.332;2024-01-25T23:27:54;12.77;;;6.80;;
43319;SDS011;28914;48.722;9.332;2024-01-25T23:33:13;7.80;;;6.87;;
43319;SDS011;28914;48.722;9.332;2024-01-25T23:38:34;6.93;;;6.23;;
43319;SDS011;28914;48.722;9.332;2024-01-25T23:43:53;5.87;;;4.70;;
43319;SDS011;28914;48.722;9.332;2024-01-25T23:49:12;5.10;;;4.60;;
43319;SDS011;28914;48.722;9.332;2024-01-25T23:54:34;4.37;;;3.97;;
43319;SDS011;28914;48.722;9.332;2024-01-25T23:59:53;5.27;;;3.53;;
